Time;durP1;ratioP1;P1;durP2;ratioP2;P2;SDS_P1;SDS_P2;PMS_P1;PMS_P2;Temp;Humidity;BMP_temperature;BMP_pressure;BME280_temperature;BME280_humidity;BME280_pressure;Samples;Min_cycle;Max_cycle;Signal;HPM_P1;HPM_P2
2022/04/21 00:00:16;;;;;;;5.55;4.10;;;;;;;5.93;70.19;99699.75;5111172;28;20085;-47
2022/04/21 00:02:42;;;;;;;5.18;4.13;;;;;;;6.03;69.89;99706.47;5111459;28;20114;-48
2022/04/21 00:05:09;;;;;;;5.57;4.60;;;;;;;5.88;70.66;99705.53;5110727;28;20414;-47
2022/04/21 00:07:35;;;;;;;5.82;4.72;;;;;;;5.73;71.28;99705.47;5111383;28;20372;-47
2022/04/21 00:10:02;;;;;;;6.28;4.60;;;;;;;5.68;71.17;99710.44;5112397;28;20038;-48
2022/04/21 00:12:28;;;;;;;5.15;4.50;;;;;;;5.61;71.01;99705.00;5115523;28;20031;-51
2022/04/21 00:14:54;;;;;;;5.55;4.40;;;;;;;5.51;72.10;99703.59;5096848;28;20028;-47
2022/04/21 00:17:19;;;;;;;5.63;4.22;;;;;;;5.53;72.21;99712.97;5115082;28;20039;-46
2022/04/21 00:19:45;;;;;;;6.60;4.22;;;;;;;5.55;71.88;99704.88;5114892;28;20023;-46
2022/04/21 00:24:54;;;;;;;6.20;4.63;;;;;;;5.71;71.21;99710.06;5114835;28;20425;-47
2022/04/21 00:27:20;;;;;;;5.93;4.47;;;;;;;5.62;71.23;99703.22;5115127;28;20633;-47
2022/04/21 00:29:45;;;;;;;5.57;4.45;;;;;;;5.75;70.22;99708.75;5115246;28;20027;-47
2022/04/21 00:32:11;;;;;;;5.65;3.97;;;;;;;5.39;71.25;99711.06;5114697;28;20022;-50
2022/04/21 00:34:37;;;;;;;6.05;4.40;;;;;;;5.62;70.83;99716.41;5114813;28;20050;-47
2022/04/21 00:37:03;;;;;;;5.38;4.10;;;;;;;5.59;70.78;99714.91;5114842;28;20096;-50
2022/04/21 00:39:31;;;;;;;5.18;4.00;;;;;;;5.57;70.99;99716.91;5114814;28;20024;-49
2022/04/21 00:42:03;;;;;;;5.82;4.38;;;;;;;5.64;70.62;99728.44;5114614;28;20032;-47
2022/04/21 00:44:29;;;;;;;8.73;4.65;;;;;;;5.62;70.48;99732.25;5114310;28;20028;-47
2022/04/21 00:46:57;;;;;;;8.57;5.10;;;;;;;5.67;70.32;99727.25;5114825;28;20038;-47
2022/04/21 00:49:25;;;;;;;5.88;4.43;;;;;;;5.76;70.05;99731.50;5114729;28;20023;-48
2022/04/21 00:51:52;;;;;;;5.95;4.45;;;;;;;5.72;70.05;99738.13;5114362;28;20042;-54
2022/04/21 00:54:18;;;;;;;5.63;4.63;;;;;;;5.82;69.64;99733.47;5114482;28;20032;-47
2022/04/21 00:56:44;;;;;;;5.63;4.43;;;;;;;5.65;69.76;99737.19;5096324;28;20100;-48
2022/04/21 00:59:11;;;;;;;5.38;4.22;;;;;;;5.65;69.82;99732.75;5113922;28;20434;-49
2022/04/21 01:04:22;;;;;;;5.40;4.20;;;;;;;5.36;70.69;99741.25;5114004;28;20059;-49
2022/04/21 01:06:51;;;;;;;6.15;4.53;;;;;;;5.37;70.38;99742.91;5114569;28;20031;-48
2022/04/21 01:09:17;;;;;;;5.80;4.40;;;;;;;5.51;70.05;99744.00;5114304;28;20419;-48
2022/04/21 01:11:42;;;;;;;8.05;4.70;;;;;;;5.68;69.63;99756.16;5114376;28;20027;-47
2022/04/21 01:14:09;;;;;;;6.97;4.82;;;;;;;5.68;69.00;99750.03;5113638;28;20094;-49
2022/04/21 01:16:34;;;;;;;6.70;4.65;;;;;;;5.49;70.29;99757.38;5114509;28;20468;-47
2022/04/21 01:18:59;;;;;;;5.97;4.40;;;;;;;5.49;70.43;99757.38;5114120;28;20023;-47
2022/04/21 01:21:25;;;;;;;8.07;5.18;;;;;;;5.45;70.69;99758.69;5113744;28;20032;-46
2022/04/21 01:23:50;;;;;;;6.45;4.72;;;;;;;5.59;69.89;99754.53;5113409;28;20088;-48
2022/04/21 01:26:17;;;;;;;6.72;5.32;;;;;;;5.62;69.40;99754.19;5113948;28;20027;-46
2022/04/21 01:28:45;;;;;;;7.38;5.65;;;;;;;5.80;68.75;99751.28;5114051;28;20019;-49
2022/04/21 01:31:11;;;;;;;7.75;5.57;;;;;;;5.82;69.11;99753.78;5113916;28;20042;-46
2022/04/21 01:33:37;;;;;;;8.68;5.80;;;;;;;5.88;68.32;99750.44;5113627;28;20031;-46
2022/04/21 01:36:04;;;;;;;7.30;5.50;;;;;;;5.47;68.12;99674.88;5113185;28;20592;-48
2022/04/21 01:41:13;;;;;;;7.88;5.50;;;;;;;6.20;66.44;99738.88;5114017;28;20039;-50
2022/04/21 01:43:41;;;;;;;7.15;5.32;;;;;;;6.09;67.25;99731.38;5113420;28;20039;-47
2022/04/21 01:46:09;;;;;;;6.90;5.25;;;;;;;5.71;67.68;99733.03;5113215;28;20026;-50
2022/04/21 01:48:35;;;;;;;6.05;4.43;;;;;;;5.68;67.69;99723.63;5113700;28;20027;-48
2022/04/21 01:51:00;;;;;;;7.28;4.85;;;;;;;5.78;68.07;99732.16;5113684;28;20023;-48
2022/04/21 01:53:26;;;;;;;7.70;4.97;;;;;;;5.86;68.09;99729.50;5113423;28;20074;-48
2022/04/21 01:55:51;;;;;;;5.60;4.65;;;;;;;5.85;67.47;99733.13;5112673;28;20024;-50
2022/04/21 01:58:17;;;;;;;6.07;4.88;;;;;;;5.99;67.38;99726.31;5113103;28;20161;-49
2022/04/21 02:00:42;;;;;;;7.18;5.25;;;;;;;5.86;67.95;99723.38;5113202;28;20047;-47
2022/04/21 02:03:08;;;;;;;7.10;4.95;;;;;;;5.92;68.34;99719.22;5113029;28;20028;-47
2022/04/21 02:05:33;;;;;;;6.07;4.90;;;;;;;5.78;68.10;99713.69;5112855;28;20419;-49
2022/04/21 02:08:00;;;;;;;6.20;4.60;;;;;;;5.64;68.57;99712.59;5112708;28;20024;-50
2022/04/21 02:10:26;;;;;;;8.20;5.03;;;;;;;5.71;68.37;99704.78;5113024;28;20024;-47
2022/04/21 02:12:52;;;;;;;6.65;4.75;;;;;;;5.46;68.90;99723.41;5113301;28;20030;-47
2022/04/21 02:15:17;;;;;;;7.60;4.82;;;;;;;5.54;69.18;99727.00;5113161;28;20106;-47
2022/04/21 02:17:44;;;;;;;6.68;5.13;;;;;;;5.67;68.41;99730.75;5113057;28;20115;-48
2022/04/21 02:20:12;;;;;;;7.47;5.00;;;;;;;5.56;68.86;99720.56;5113091;28;20035;-49
2022/04/21 02:22:38;;;;;;;7.80;5.18;;;;;;;5.76;68.26;99725.41;5112933;28;20035;-47
2022/04/21 02:25:08;;;;;;;7.70;4.95;;;;;;;5.59;69.21;99736.03;5112575;28;20039;-46
2022/04/21 02:27:35;;;;;;;8.00;5.40;;;;;;;5.72;68.38;99732.84;5112807;28;20120;-49
2022/04/21 02:30:00;;;;;;;7.13;4.95;;;;;;;5.58;68.67;99737.06;5112813;28;20023;-48
2022/04/21 02:32:26;;;;;;;6.70;5.32;;;;;;;5.55;68.84;99736.56;5112254;28;20054;-48
2022/04/21 02:34:53;;;;;;;7.60;5.32;;;;;;;5.47;69.45;99726.88;5112362;28;20023;-48
2022/04/21 02:37:21;;;;;;;7.13;5.20;;;;;;;5.52;70.23;99731.63;5112825;28;20028;-48
2022/04/21 02:39:46;;;;;;;10.20;5.43;;;;;;;5.45;69.74;99724.38;5112599;28;20103;-47
2022/04/21 02:42:12;;;;;;;8.60;5.68;;;;;;;5.46;69.21;99720.78;5112402;28;20710;-50
2022/04/21 02:44:40;;;;;;;6.18;5.00;;;;;;;5.51;68.86;99720.25;5112310;28;20024;-50
2022/04/21 02:47:07;;;;;;;7.20;5.30;;;;;;;5.64;68.63;99717.06;5112358;28;20029;-47
2022/04/21 02:49:35;;;;;;;7.00;4.97;;;;;;;5.71;68.34;99733.84;5111905;28;20459;-46
2022/04/21 02:52:01;;;;;;;7.72;5.45;;;;;;;5.59;68.55;99722.03;5112188;28;20031;-47
2022/04/21 02:57:20;;;;;;;7.18;5.20;;;;;;;5.75;67.91;99715.84;5112585;28;20038;-47
2022/04/21 02:59:46;;;;;;;7.25;4.85;;;;;;;5.48;68.75;99720.56;5111907;28;20062;-47
2022/04/21 03:02:12;;;;;;;8.02;5.72;;;;;;;5.39;69.46;99714.53;5112204;28;20024;-46
2022/04/21 03:04:37;;;;;;;9.95;5.80;;;;;;;5.29;70.96;99717.34;5111751;28;20055;-46
2022/04/21 03:07:03;;;;;;;8.13;6.03;;;;;;;5.15;72.04;99722.50;5112043;28;20043;-48
2022/04/21 03:09:29;;;;;;;9.13;5.78;;;;;;;5.32;71.33;99721.47;5112125;28;20016;-48
2022/04/21 03:12:03;;;;;;;8.25;5.70;;;;;;;4.92;72.81;99717.94;5111571;28;20031;-47
2022/04/21 03:14:28;;;;;;;8.32;5.28;;;;;;;4.84;73.09;99737.22;5111848;28;20027;-47
2022/04/21 03:16:54;;;;;;;7.25;5.05;;;;;;;4.46;74.18;99729.00;5112100;28;20029;-47
2022/04/21 03:19:19;;;;;;;8.80;5.28;;;;;;;4.56;74.61;99726.19;5111819;28;20015;-47
2022/04/21 03:24:29;;;;;;;10.43;5.60;;;;;;;4.43;75.65;99736.41;5111734;28;20450;-48
2022/04/21 03:26:55;;;;;;;22.52;14.13;;;;;;;4.26;77.70;99739.00;5112213;28;20054;-47
2022/04/21 03:29:21;;;;;;;21.02;12.80;;;;;;;4.27;77.68;99732.78;5111945;28;20081;-49
2022/04/21 03:31:47;;;;;;;31.00;16.17;;;;;;;4.27;77.63;99730.13;5111604;28;20028;-48
2022/04/21 03:34:15;;;;;;;44.40;23.52;;;;;;;4.18;77.99;99746.09;5111447;28;20031;-50
2022/04/21 03:36:47;;;;;;;12.75;8.15;;;;;;;4.20;77.48;99750.19;5111739;28;20019;-47
2022/04/21 03:39:16;;;;;;;10.40;6.95;;;;;;;4.17;77.69;99758.44;5111886;28;20076;-48
2022/04/21 03:41:42;;;;;;;8.35;6.07;;;;;;;4.35;75.91;99747.75;5111548;28;20034;-48
2022/04/21 03:44:11;;;;;;;9.93;6.38;;;;;;;4.49;75.83;99756.81;5110929;28;20391;-47
2022/04/21 03:46:38;;;;;;;10.00;5.72;;;;;;;4.29;76.16;99740.50;5111428;28;20256;-48
2022/04/21 03:49:07;;;;;;;8.80;5.90;;;;;;;4.33;76.08;99765.53;5111221;28;20058;-47
2022/04/21 03:51:33;;;;;;;8.70;6.13;;;;;;;4.14;77.07;99750.84;5111574;28;20439;-49
2022/04/21 03:53:59;;;;;;;8.07;5.95;;;;;;;4.25;77.72;99755.81;5111007;28;20643;-47
2022/04/21 03:56:26;;;;;;;8.30;6.03;;;;;;;4.30;77.50;99753.53;5111506;28;20035;-48
2022/04/21 03:58:52;;;;;;;12.95;6.80;;;;;;;4.74;75.88;99752.41;5111946;28;20024;-47
2022/04/21 04:01:19;;;;;;;12.65;7.90;;;;;;;4.82;75.89;99746.31;5111671;28;20493;-49
2022/04/21 04:03:45;;;;;;;13.80;6.97;;;;;;;5.03;76.08;99753.69;5110403;28;20395;-47
2022/04/21 04:11:42;;;;;;;12.02;7.10;;;;;;;6.46;71.08;99748.31;5111371;28;20070;-47
2022/04/21 04:14:08;;;;;;;12.88;9.10;;;;;;;6.17;71.82;99757.75;5110516;28;20494;-48
2022/04/21 04:16:35;;;;;;;8.52;6.40;;;;;;;6.35;71.76;99760.09;5110556;28;20031;-46
2022/04/21 04:19:03;;;;;;;15.05;8.82;;;;;;;6.53;71.09;99751.91;5110573;28;20107;-50
2022/04/21 04:21:30;;;;;;;15.07;10.00;;;;;;;6.79;68.97;99764.72;5111049;28;20034;-49
2022/04/21 04:23:56;;;;;;;15.80;10.00;;;;;;;7.38;66.69;99757.91;5110640;28;20078;-50
2022/04/21 04:26:22;;;;;;;14.48;8.05;;;;;;;7.01;67.75;99747.19;5110365;28;20047;-48
2022/04/21 04:28:49;;;;;;;13.43;8.95;;;;;;;7.11;68.98;99759.34;5110946;28;20055;-49
2022/04/21 04:31:14;;;;;;;14.20;8.13;;;;;;;7.38;68.61;99753.41;5110377;28;20034;-49
2022/04/21 04:33:39;;;;;;;14.48;8.23;;;;;;;7.74;67.50;99752.66;5109983;28;20023;-47
2022/04/21 04:36:05;;;;;;;21.33;12.90;;;;;;;7.86;66.25;99757.50;5109974;28;20058;-48
2022/04/21 04:38:30;;;;;;;15.07;9.35;;;;;;;8.07;65.39;99746.94;5110108;28;20462;-50
2022/04/21 04:40:56;;;;;;;14.13;7.78;;;;;;;8.09;64.66;99750.25;5110514;28;20455;-47
2022/04/21 04:43:22;;;;;;;11.45;7.78;;;;;;;8.44;63.13;99746.97;5110549;28;20024;-47
2022/04/21 04:48:31;;;;;;;10.75;7.40;;;;;;;8.47;61.16;99751.88;5110381;28;20034;-48
2022/04/21 04:50:57;;;;;;;12.10;7.72;;;;;;;8.63;59.81;99756.94;5091763;28;20019;-51
2022/04/21 04:53:22;;;;;;;14.50;8.75;;;;;;;8.58;59.24;99744.22;5109506;28;20022;-47
2022/04/21 04:55:48;;;;;;;14.27;8.50;;;;;;;8.75;59.74;99746.63;5110756;28;20015;-46
2022/04/21 04:58:13;;;;;;;16.23;10.55;;;;;;;9.20;58.12;99745.31;5113549;28;20077;-49
2022/04/21 05:00:39;;;;;;;12.80;8.55;;;;;;;9.65;59.94;99746.78;5113596;28;20157;-47
2022/04/21 05:03:04;;;;;;;11.00;8.40;;;;;;;10.33;56.99;99742.34;5112805;28;20024;-50
2022/04/21 05:05:30;;;;;;;11.55;8.10;;;;;;;10.48;55.59;99739.50;5113002;28;20340;-48
2022/04/21 05:07:55;;;;;;;10.73;7.05;;;;;;;11.17;54.87;99741.97;5112602;28;20020;-47
2022/04/21 05:10:23;;;;;;;10.63;6.88;;;;;;;11.59;55.05;99739.81;5112399;28;20102;-49
2022/04/21 05:12:48;;;;;;;9.13;6.88;;;;;;;11.19;56.27;99740.72;5112881;28;20020;-50
2022/04/21 05:15:14;;;;;;;11.50;7.97;;;;;;;10.42;54.58;99742.19;5112851;28;20026;-48
2022/04/21 05:17:40;;;;;;;10.38;6.70;;;;;;;10.66;56.45;99756.72;5112494;28;20468;-50
2022/04/21 05:20:06;;;;;;;11.85;8.10;;;;;;;10.43;54.39;99757.91;5112670;28;20031;-48
2022/04/21 05:22:37;;;;;;;11.13;7.28;;;;;;;10.53;54.33;99742.38;5094354;28;20031;-50
2022/04/21 05:25:08;;;;;;;10.20;7.78;;;;;;;9.91;54.33;99748.75;5112264;28;20027;-48
2022/04/21 05:27:34;;;;;;;14.63;7.38;;;;;;;9.53;59.06;99757.97;5112687;28;20023;-51
2022/04/21 05:32:48;;;;;;;12.57;8.00;;;;;;;9.39;56.93;99751.78;5112673;28;20030;-48
2022/04/21 05:35:14;;;;;;;;;;;;;;;9.76;59.33;99768.31;5112790;28;20016;-47
2022/04/21 05:37:39;;;;;;;12.45;8.50;;;;;;;11.24;56.61;99761.44;5112824;28;20259;-48
2022/04/21 05:40:05;;;;;;;11.30;8.02;;;;;;;11.70;53.07;99771.97;5112081;28;20403;-51
2022/04/21 05:42:35;;;;;;;12.30;8.27;;;;;;;10.69;53.46;99766.97;5112683;28;20020;-49
2022/04/21 05:45:02;;;;;;;9.55;7.63;;;;;;;10.21;54.77;99769.72;5112488;28;20108;-48
2022/04/21 05:47:28;;;;;;;10.40;7.50;;;;;;;10.22;54.41;99780.13;5112878;28;20168;-49
2022/04/21 05:49:54;;;;;;;9.75;7.32;;;;;;;10.15;54.76;99774.81;5108328;28;20580;-51
2022/04/21 05:52:23;;;;;;;12.18;7.70;;;;;;;10.11;54.87;99781.56;5111999;28;20061;-52
2022/04/21 05:54:49;;;;;;;11.83;7.83;;;;;;;9.81;55.97;99769.56;5112222;28;20027;-48
2022/04/21 05:57:14;;;;;;;11.02;7.63;;;;;;;9.38;57.23;99781.19;5112575;28;20265;-48
2022/04/21 05:59:40;;;;;;;8.48;6.80;;;;;;;9.48;57.22;99786.13;5108434;28;20039;-47
2022/04/21 06:02:07;;;;;;;9.93;7.15;;;;;;;9.62;57.07;99782.56;5093279;28;20114;-49
2022/04/21 06:04:32;;;;;;;9.45;7.10;;;;;;;9.84;55.99;99783.25;5107114;28;20136;-52
2022/04/21 06:06:58;;;;;;;14.32;7.30;;;;;;;9.72;56.25;99779.53;5111317;28;20084;-48
2022/04/21 06:09:24;;;;;;;20.35;8.35;;;;;;;10.25;56.70;99782.41;5111212;28;20026;-49
2022/04/21 06:11:49;;;;;;;18.73;8.75;;;;;;;10.65;55.80;99763.88;5110770;28;20055;-51
2022/04/21 06:14:15;;;;;;;13.23;7.35;;;;;;;10.93;54.52;99762.88;5092529;28;20028;-51
2022/04/21 06:16:40;;;;;;;9.32;6.60;;;;;;;11.15;52.18;99766.94;5111446;28;20032;-49
2022/04/21 06:19:06;;;;;;;11.90;7.05;;;;;;;11.24;52.82;99762.25;5111672;28;20043;-49
2022/04/21 06:21:32;;;;;;;9.82;7.35;;;;;;;11.53;52.67;99778.78;5111210;28;20027;-49
2022/04/21 06:23:58;;;;;;;15.90;11.25;;;;;;;11.83;52.27;99771.09;5110064;28;20077;-48
2022/04/21 06:26:25;;;;;;;16.70;12.00;;;;;;;13.45;52.58;99765.31;5110481;28;20511;-49
2022/04/21 06:28:51;;;;;;;19.70;12.23;;;;;;;14.57;47.98;99763.34;5110621;28;20019;-51
2022/04/21 06:31:17;;;;;;;16.27;9.52;;;;;;;15.68;47.44;99771.50;5110339;28;20501;-48
2022/04/21 06:33:42;;;;;;;9.30;7.15;;;;;;;16.71;44.01;99768.09;5109911;28;20019;-49
2022/04/21 06:36:08;;;;;;;11.50;6.78;;;;;;;17.35;41.93;99768.59;5108936;28;20347;-49
2022/04/21 06:38:33;;;;;;;8.57;6.72;;;;;;;17.83;41.69;99774.31;5110303;28;20510;-52
2022/04/21 06:40:59;;;;;;;9.10;6.75;;;;;;;17.81;39.37;99776.44;5110789;28;20039;-50
2022/04/21 06:48:52;;;;;;;9.77;7.03;;;;;;;19.10;37.32;99757.81;5109621;28;20025;-50
2022/04/21 06:51:18;;;;;;;13.90;7.43;;;;;;;18.88;36.34;99757.91;5109815;28;20418;-50
2022/04/21 06:53:44;;;;;;;10.30;7.20;;;;;;;19.09;36.09;99745.38;5109188;28;20024;-51
2022/04/21 06:56:13;;;;;;;10.73;6.47;;;;;;;19.12;36.44;99746.78;5109438;28;20023;-50
2022/04/21 06:58:40;;;;;;;9.75;6.05;;;;;;;19.23;37.44;99748.47;5108750;28;20031;-51
2022/04/21 07:01:05;;;;;;;10.00;6.80;;;;;;;19.18;36.76;99753.00;5109769;28;20049;-51
2022/04/21 07:03:31;;;;;;;9.95;6.05;;;;;;;19.41;36.34;99759.91;5109669;28;20032;-49
2022/04/21 07:05:56;;;;;;;11.02;6.65;;;;;;;19.55;36.43;99758.34;5109184;28;20031;-48
2022/04/21 07:08:22;;;;;;;9.43;6.32;;;;;;;19.69;35.68;99761.38;5110122;28;20065;-50
2022/04/21 07:10:48;;;;;;;11.90;7.60;;;;;;;19.22;34.83;99763.00;5109837;28;20440;-50
2022/04/21 07:13:13;;;;;;;11.30;7.28;;;;;;;19.34;36.22;99750.16;5110198;28;20027;-48
2022/04/21 07:15:40;;;;;;;10.90;7.13;;;;;;;19.31;35.61;99747.16;5109498;28;20414;-49
2022/04/21 07:18:06;;;;;;;10.45;7.22;;;;;;;18.98;37.96;99759.06;5109682;28;20028;-50
2022/04/21 07:20:32;;;;;;;11.52;6.63;;;;;;;19.09;38.32;99755.38;5110820;28;20471;-51
2022/04/21 07:22:57;;;;;;;14.38;7.05;;;;;;;19.00;35.94;99760.44;5110969;28;20104;-51
2022/04/21 07:25:23;;;;;;;12.25;7.93;;;;;;;19.24;35.02;99749.28;5110891;28;20042;-51
2022/04/21 07:27:49;;;;;;;8.73;7.10;;;;;;;18.76;34.87;99741.88;5111211;28;20032;-49
2022/04/21 07:30:14;;;;;;;10.40;7.28;;;;;;;18.46;36.01;99755.09;5111204;28;20119;-49
2022/04/21 07:32:39;;;;;;;9.88;7.28;;;;;;;18.52;36.07;99762.16;5111236;28;20030;-51
2022/04/21 07:35:05;;;;;;;9.48;6.68;;;;;;;18.66;35.43;99755.28;5110571;28;20034;-50
2022/04/21 07:37:32;;;;;;;10.00;7.13;;;;;;;18.93;34.80;99749.88;5110783;28;20024;-52
2022/04/21 07:39:58;;;;;;;9.73;6.68;;;;;;;18.18;35.61;99754.28;5110904;28;20265;-50
2022/04/21 07:42:24;;;;;;;13.55;7.30;;;;;;;18.54;35.64;99760.03;5110564;28;20023;-51
2022/04/21 07:44:49;;;;;;;10.70;6.88;;;;;;;18.83;35.20;99759.75;5110412;28;20422;-48
2022/04/21 07:47:15;;;;;;;11.57;7.60;;;;;;;18.74;36.30;99754.81;5092215;28;20451;-50
2022/04/21 07:49:46;;;;;;;11.88;6.95;;;;;;;18.62;36.95;99756.03;5110417;28;20012;-49
2022/04/21 07:55:18;;;;;;;8.00;6.50;;;;;;;18.22;36.39;99755.44;5110517;28;20176;-48
2022/04/21 07:57:45;;;;;;;15.73;6.80;;;;;;;17.84;37.18;99741.00;5110886;28;20031;-50
2022/04/21 08:00:12;;;;;;;9.20;6.55;;;;;;;18.32;36.08;99750.13;5110130;28;20032;-50
2022/04/21 08:02:40;;;;;;;7.93;6.07;;;;;;;17.86;36.95;99746.13;5110303;28;20060;-49
2022/04/21 08:05:07;;;;;;;10.48;7.97;;;;;;;18.16;36.70;99765.34;5109744;28;20039;-49
2022/04/21 08:07:34;;;;;;;11.82;8.43;;;;;;;18.52;37.12;99754.91;5110558;28;20027;-49
2022/04/21 08:10:04;;;;;;;12.07;8.80;;;;;;;18.81;35.92;99748.41;5110125;28;20390;-48
2022/04/21 08:12:37;;;;;;;10.50;7.55;;;;;;;19.12;37.15;99762.97;5110293;28;20020;-49
2022/04/21 08:15:03;;;;;;;8.10;6.63;;;;;;;19.23;35.10;99753.84;5110580;28;20038;-50
2022/04/21 08:17:28;;;;;;;12.75;8.70;;;;;;;19.17;37.00;99754.88;5110351;28;20099;-49
2022/04/21 08:19:55;;;;;;;18.02;9.70;;;;;;;19.54;35.91;99762.94;5109926;28;20535;-48
2022/04/21 08:22:20;;;;;;;9.43;6.40;;;;;;;18.82;36.56;99752.75;5110329;28;20027;-52
2022/04/21 08:32:58;;;;;;;8.43;6.10;;;;;;;19.03;36.33;99765.31;5114653;28;20476;-49
2022/04/21 08:35:23;;;;;;;8.45;5.90;;;;;;;19.31;36.44;99771.44;5113845;28;20483;-50
2022/04/21 08:37:50;;;;;;;10.30;6.43;;;;;;;19.90;34.56;99762.31;5114051;28;20622;-48
2022/04/21 08:40:16;;;;;;;11.77;5.90;;;;;;;19.86;34.91;99759.31;5113889;28;20071;-51
2022/04/21 08:42:43;;;;;;;8.98;5.97;;;;;;;19.85;36.29;99760.38;5113494;28;20502;-51
2022/04/21 08:45:10;;;;;;;8.20;5.18;;;;;;;20.53;34.13;99764.88;5113869;28;20132;-53
2022/04/21 08:47:39;;;;;;;10.52;5.60;;;;;;;20.88;33.41;99755.19;5114115;28;20414;-49
2022/04/21 08:50:07;;;;;;;6.70;5.65;;;;;;;20.49;32.85;99758.41;5113768;28;20161;-51
2022/04/21 08:52:34;;;;;;;6.68;5.38;;;;;;;20.30;32.75;99763.50;5113924;28;20035;-48
2022/04/21 08:55:01;;;;;;;7.03;5.22;;;;;;;20.97;33.48;99760.88;5113714;28;20027;-51
2022/04/21 08:57:29;;;;;;;10.68;6.25;;;;;;;21.03;33.02;99760.56;5113968;28;20519;-49
2022/04/21 08:59:56;;;;;;;9.77;5.70;;;;;;;20.68;33.09;99756.81;5113406;28;20106;-51
2022/04/21 09:02:32;;;;;;;7.97;5.47;;;;;;;20.88;32.68;99757.88;5113315;28;20458;-48
2022/04/21 09:04:57;;;;;;;6.30;5.45;;;;;;;21.07;32.34;99753.53;5113497;28;20156;-50
2022/04/21 09:07:23;;;;;;;6.00;5.40;;;;;;;21.53;32.20;99741.03;5113590;28;20054;-50
2022/04/21 09:10:12;;;;;;;8.23;5.40;;;;;;;21.82;31.19;99742.00;5111935;28;20132;-48
2022/04/21 09:13:02;;;;;;;7.47;5.65;;;;;;;21.69;31.59;99747.22;5112134;28;20027;-48
2022/04/21 09:15:30;;;;;;;8.93;5.70;;;;;;;21.14;32.20;99749.75;5112211;28;20019;-51
2022/04/21 09:17:59;;;;;;;7.03;5.85;;;;;;;20.73;31.63;99739.78;5112243;28;20076;-51
2022/04/21 09:20:34;;;;;;;7.90;6.00;;;;;;;20.79;31.73;99746.00;5112303;28;20376;-51
2022/04/21 09:23:01;;;;;;;10.15;6.32;;;;;;;20.46;31.72;99742.72;5111726;28;20098;-50
2022/04/21 09:25:32;;;;;;;8.40;6.00;;;;;;;19.96;32.60;99728.84;5110319;28;20026;-49
2022/04/21 09:27:58;;;;;;;10.80;6.07;;;;;;;20.09;32.95;99732.94;5110947;28;20020;-50
2022/04/21 09:30:25;;;;;;;10.18;6.47;;;;;;;20.51;34.17;99734.63;5111030;28;20375;-48
2022/04/21 09:32:56;;;;;;;7.75;5.88;;;;;;;20.95;33.34;99730.59;5111526;28;20108;-49
2022/04/21 09:35:24;;;;;;;10.98;6.10;;;;;;;21.51;32.43;99727.75;5110574;28;20035;-50
2022/04/21 09:37:55;;;;;;;13.48;6.30;;;;;;;20.89;32.51;99729.78;5111222;28;20030;-48
2022/04/21 09:40:25;;;;;;;8.48;5.80;;;;;;;21.48;31.40;99720.19;5111735;28;20027;-48
2022/04/21 09:42:55;;;;;;;7.90;6.20;;;;;;;21.81;30.44;99724.09;5111553;28;20028;-49
2022/04/21 09:48:30;;;;;;;11.20;6.25;;;;;;;22.39;31.08;99722.69;5112858;28;20262;-48
2022/04/21 09:51:15;;;;;;;12.35;5.95;;;;;;;22.95;30.27;99716.81;5112519;28;20019;-50
2022/04/21 09:53:56;;;;;;;8.38;6.40;;;;;;;22.89;27.93;99715.25;5112458;28;20027;-49
2022/04/21 09:56:29;;;;;;;9.75;5.75;;;;;;;21.92;29.53;99708.63;5112716;28;20023;-51
2022/04/21 09:58:55;;;;;;;8.98;6.05;;;;;;;20.88;30.52;99701.09;5112288;28;20094;-48
2022/04/21 10:01:21;;;;;;;8.75;6.55;;;;;;;19.72;33.00;99693.38;5112274;28;20051;-51
2022/04/21 10:03:47;;;;;;;8.90;6.28;;;;;;;20.48;33.43;99710.81;5112090;28;20188;-50
2022/04/21 10:06:13;;;;;;;10.25;6.25;;;;;;;20.80;32.29;99705.16;5111638;28;20027;-50
2022/04/21 10:08:40;;;;;;;10.95;6.28;;;;;;;20.81;31.08;99706.78;5112093;28;20020;-49
2022/04/21 10:11:07;;;;;;;7.70;6.50;;;;;;;19.83;32.99;99700.44;5112083;28;20042;-48
2022/04/21 10:13:33;;;;;;;7.97;6.35;;;;;;;20.74;32.55;99698.16;5112193;28;20095;-48
2022/04/21 10:16:00;;;;;;;7.55;5.70;;;;;;;21.62;31.48;99696.03;5111752;28;20064;-51
2022/04/21 10:18:26;;;;;;;7.85;6.00;;;;;;;22.17;30.93;99694.09;5111856;28;20034;-48
2022/04/21 10:20:55;;;;;;;9.93;6.32;;;;;;;22.57;29.15;99692.19;5112110;28;20107;-49
2022/04/21 10:23:22;;;;;;;9.40;7.10;;;;;;;22.54;28.87;99697.38;5112156;28;20102;-48
2022/04/21 10:25:59;;;;;;;8.55;6.35;;;;;;;21.92;29.00;99681.53;5111615;28;20032;-48
2022/04/21 10:28:38;;;;;;;7.35;5.57;;;;;;;22.01;29.12;99689.88;5111641;28;20143;-48
2022/04/21 10:31:29;;;;;;;14.75;5.80;;;;;;;22.25;28.99;99690.00;5111809;28;20079;-49
2022/04/21 10:33:57;;;;;;;7.63;5.32;;;;;;;21.73;28.80;99683.28;5111542;28;20016;-49
2022/04/21 10:36:35;;;;;;;6.90;5.43;;;;;;;21.62;28.45;99685.22;5111823;28;20047;-50
2022/04/21 10:39:16;;;;;;;9.07;6.50;;;;;;;21.07;29.92;99688.59;5111394;28;20027;-50
2022/04/21 10:41:41;;;;;;;10.57;6.63;;;;;;;20.39;32.03;99682.69;5111386;28;20034;-50
2022/04/21 10:44:27;;;;;;;9.93;6.50;;;;;;;19.59;31.81;99675.78;5092776;28;20095;-49
2022/04/21 10:47:33;;;;;;;7.88;6.78;;;;;;;19.29;32.57;99684.56;5111477;28;20103;-52
2022/04/21 10:50:00;;;;;;;11.45;6.38;;;;;;;19.09;33.66;99679.88;5111248;28;20031;-51
2022/04/21 10:58:34;;;;;;;8.40;6.30;;;;;;;18.86;33.71;99673.78;5111705;28;20096;-51
2022/04/21 11:01:17;;;;;;;9.30;5.28;;;;;;;18.94;33.53;99672.50;5110851;28;20057;-48
2022/04/21 11:03:45;;;;;;;7.38;5.32;;;;;;;18.72;32.40;99673.41;5111184;28;20101;-51
2022/04/21 11:06:13;;;;;;;7.88;5.10;;;;;;;19.31;32.03;99671.63;5111302;28;20028;-50
2022/04/21 11:08:39;;;;;;;7.53;5.70;;;;;;;19.75;33.44;99668.56;5092427;28;20415;-49
2022/04/21 11:11:05;;;;;;;9.07;6.82;;;;;;;20.64;33.49;99676.53;5110427;28;20032;-48
2022/04/21 11:13:49;;;;;;;10.25;6.78;;;;;;;20.24;34.38;99672.72;5110725;28;20024;-51
2022/04/21 11:16:39;;;;;;;12.40;6.90;;;;;;;19.60;35.30;99679.28;5110973;28;20034;-48
2022/04/21 11:19:32;;;;;;;9.73;7.40;;;;;;;19.38;36.49;99672.19;5110735;28;20081;-48
2022/04/21 11:22:39;;;;;;;12.68;8.23;;;;;;;20.05;36.74;99670.53;5106444;28;20108;-48
2022/04/21 11:25:06;;;;;;;9.90;7.70;;;;;;;19.29;38.27;99671.06;5082443;28;20046;-47
2022/04/21 11:27:34;;;;;;;9.15;7.70;;;;;;;19.52;36.61;99664.44;5110849;28;20544;-48
2022/04/21 11:30:20;;;;;;;11.50;7.95;;;;;;;19.77;36.60;99666.41;5110578;28;20043;-48
2022/04/21 11:32:52;;;;;;;10.07;7.47;;;;;;;18.58;38.48;99644.47;5110448;28;20167;-49
2022/04/21 11:35:21;;;;;;;10.82;7.63;;;;;;;19.08;37.92;99630.50;5110864;28;20023;-51
2022/04/21 11:37:57;;;;;;;12.85;7.75;;;;;;;19.69;37.26;99643.41;5110752;28;20030;-52
2022/04/21 11:40:36;;;;;;;9.40;7.05;;;;;;;19.88;36.56;99646.47;5111344;28;20031;-48
2022/04/21 11:43:17;;;;;;;10.02;7.32;;;;;;;18.98;37.83;99632.34;5110506;28;20035;-48
2022/04/21 11:45:53;;;;;;;;;;;;;;;18.79;39.63;99632.75;5110949;28;20019;-48
2022/04/21 11:48:19;;;;;;;9.77;7.25;;;;;;;18.02;39.81;99626.78;5110395;28;20446;-48
2022/04/21 11:50:46;;;;;;;9.70;6.78;;;;;;;18.54;39.12;99620.75;5110570;28;20107;-48
2022/04/21 11:53:20;;;;;;;9.23;6.10;;;;;;;18.90;37.80;99615.56;5110260;28;20035;-48
2022/04/21 11:55:50;;;;;;;6.88;5.70;;;;;;;19.15;36.93;99603.28;5110480;28;20031;-49
2022/04/21 11:58:30;;;;;;;9.07;6.13;;;;;;;18.65;38.34;99601.94;5110695;28;20031;-47
2022/04/21 12:06:40;;;;;;;7.43;6.07;;;;;;;18.36;39.57;99604.97;5112948;28;20566;-48
2022/04/21 12:09:07;;;;;;;7.68;6.10;;;;;;;18.76;38.84;99590.94;5114448;28;20019;-48
2022/04/21 12:11:33;;;;;;;8.00;6.30;;;;;;;18.99;38.96;99590.84;5114747;28;20056;-50
2022/04/21 12:13:59;;;;;;;7.88;6.15;;;;;;;19.64;38.15;99596.72;5114345;28;20057;-48
2022/04/21 12:16:56;;;;;;;8.93;6.10;;;;;;;18.90;38.07;99596.69;5114100;28;20419;-51
2022/04/21 12:19:38;;;;;;;8.32;5.80;;;;;;;18.94;37.91;99583.50;5113066;28;20035;-48
2022/04/21 12:22:19;;;;;;;7.78;5.53;;;;;;;19.39;37.07;99590.16;5114668;28;20035;-52
2022/04/21 12:24:55;;;;;;;6.65;5.50;;;;;;;19.36;36.88;99587.19;5113645;28;20033;-52
2022/04/21 12:27:22;;;;;;;7.90;5.53;;;;;;;19.38;37.44;99580.47;5113855;28;20024;-50
2022/04/21 12:29:49;;;;;;;9.02;5.43;;;;;;;20.04;36.64;99573.56;5114316;28;20015;-49
2022/04/21 12:32:34;;;;;;;7.03;5.53;;;;;;;19.63;37.93;99576.19;5113973;28;20031;-52
2022/04/21 12:35:03;;;;;;;8.15;6.10;;;;;;;18.88;39.11;99581.88;5113441;28;20035;-51